Time;durP1;ratioP1;P1;durP2;ratioP2;P2;SDS_P1;SDS_P2;PMS_P1;PMS_P2;Temp;Humidity;BMP_temperature;BMP_pressure;BME280_temperature;BME280_humidity;BME280_pressure;Samples;Min_cycle;Max_cycle;Signal;HPM_P1;HPM_P2
2021/12/10 00:02:31;;;;;;;4.20;1.73;;;;;;;;;;4956221;28;20187;-73
2021/12/10 00:04:56;;;;;;;5.27;1.53;;;;;;;;;;4951899;28;20281;-73
2021/12/10 00:07:23;;;;;;;2.00;1.30;;;;;;;;;;4958703;28;20264;-73
2021/12/10 00:09:51;;;;;;;4.03;1.60;;;;;;;;;;4953622;28;20237;-73
2021/12/10 00:12:21;;;;;;;5.50;1.53;;;;;;;;;;4948422;28;20213;-73
2021/12/10 00:14:46;;;;;;;3.53;1.73;;;;;;;;;;4949062;28;20189;-73
2021/12/10 00:17:13;;;;;;;4.13;1.87;;;;;;;;;;4951870;28;20259;-73
2021/12/10 00:19:45;;;;;;;4.90;1.40;;;;;;;;;;4955030;28;20193;-73
2021/12/10 00:22:17;;;;;;;4.07;1.80;;;;;;;;;;4955765;28;20191;-73
2021/12/10 00:24:44;;;;;;;4.10;1.30;;;;;;;;;;4954875;28;20189;-73
2021/12/10 00:27:09;;;;;;;3.80;1.50;;;;;;;;;;4960443;28;20263;-73
2021/12/10 00:29:38;;;;;;;3.67;2.40;;;;;;;;;;4983351;28;20239;-73
2021/12/10 00:32:06;;;;;;;9.23;2.50;;;;;;;;;;4973785;28;20177;-73
2021/12/10 00:34:38;;;;;;;2.70;1.70;;;;;;;;;;4956546;28;20180;-73
2021/12/10 00:37:05;;;;;;;3.20;1.67;;;;;;;;;;4970272;28;20259;-73
2021/12/10 00:39:32;;;;;;;4.27;1.53;;;;;;;;;;4960935;28;20212;-73
2021/12/10 00:41:58;;;;;;;4.10;1.70;;;;;;;;;;4957307;28;20204;-73
2021/12/10 00:44:24;;;;;;;6.00;1.57;;;;;;;;;;4955629;28;20181;-73
2021/12/10 00:46:50;;;;;;;2.50;1.60;;;;;;;;;;4953493;28;20217;-73
2021/12/10 00:49:15;;;;;;;6.23;1.83;;;;;;;;;;4962091;28;20187;-73
2021/12/10 00:51:41;;;;;;;2.77;2.13;;;;;;;;;;4967416;28;20322;-73
2021/12/10 00:54:07;;;;;;;5.47;2.03;;;;;;;;;;4944829;28;20180;-73
2021/12/10 00:56:32;;;;;;;4.50;1.70;;;;;;;;;;4957662;28;20744;-73
2021/12/10 00:58:58;;;;;;;3.43;1.83;;;;;;;;;;4971123;28;20254;-73
2021/12/10 01:01:26;;;;;;;3.40;1.80;;;;;;;;;;4956860;28;20209;-73
2021/12/10 01:03:53;;;;;;;6.70;1.70;;;;;;;;;;4952567;28;20228;-73
2021/12/10 01:06:20;;;;;;;1.93;1.33;;;;;;;;;;4952010;28;20255;-73
2021/12/10 01:08:48;;;;;;;4.27;2.43;;;;;;;;;;4977562;28;20189;-73
2021/12/10 01:11:16;;;;;;;5.87;1.77;;;;;;;;;;4964743;28;20208;-73
2021/12/10 01:13:43;;;;;;;3.20;1.70;;;;;;;;;;4951934;28;20209;-73
2021/12/10 01:23:41;;;;;;;6.10;2.10;;;;;;;;;;4972548;28;20172;-73
2021/12/10 01:25:12;;;;;;;3.07;1.47;;;;;;;;;;4970894;28;20201;-73
2021/12/10 01:27:39;;;;;;;2.00;1.73;;;;;;;;;;4972156;28;20237;-73
2021/12/10 01:30:16;;;;;;;3.07;1.70;;;;;;;;;;4969637;28;20259;-74
2021/12/10 01:32:44;;;;;;;6.50;1.80;;;;;;;;;;4954178;28;20179;-73
2021/12/10 01:35:10;;;;;;;4.93;1.70;;;;;;;;;;4941483;28;20268;-73
2021/12/10 01:37:35;;;;;;;4.57;2.20;;;;;;;;;;4963657;28;20181;-73
2021/12/10 01:40:01;;;;;;;3.03;2.07;;;;;;;;;;4948835;28;20239;-73
2021/12/10 01:44:53;;;;;;;4.77;1.83;;;;;;;;;;4966575;28;20177;-73
2021/12/10 01:47:21;;;;;;;4.97;1.70;;;;;;;;;;4950147;29;20197;-73
2021/12/10 01:49:46;;;;;;;3.07;1.40;;;;;;;;;;4947297;28;20483;-73
2021/12/10 01:52:12;;;;;;;5.57;1.50;;;;;;;;;;4949673;28;20184;-73
2021/12/10 01:54:40;;;;;;;3.30;1.30;;;;;;;;;;4948456;28;20180;-73
2021/12/10 01:57:06;;;;;;;4.67;1.73;;;;;;;;;;4950609;28;20178;-73
2021/12/10 01:59:33;;;;;;;4.00;1.80;;;;;;;;;;4946364;28;20183;-73
2021/12/10 02:02:09;;;;;;;3.50;1.70;;;;;;;;;;4951445;28;20260;-73
2021/12/10 02:04:35;;;;;;;2.73;1.70;;;;;;;;;;4968153;28;20244;-73
2021/12/10 02:07:02;;;;;;;4.23;1.63;;;;;;;;;;4953760;28;20193;-74
2021/12/10 02:09:31;;;;;;;3.67;1.50;;;;;;;;;;4946449;28;20201;-73
2021/12/10 02:11:56;;;;;;;3.87;1.60;;;;;;;;;;4952258;28;20184;-73
2021/12/10 02:14:22;;;;;;;4.17;1.80;;;;;;;;;;4957727;28;20180;-73
2021/12/10 02:16:48;;;;;;;5.67;2.03;;;;;;;;;;4956942;28;20177;-74
2021/12/10 02:19:13;;;;;;;3.87;1.50;;;;;;;;;;4959190;28;20189;-73
2021/12/10 02:21:40;;;;;;;2.80;1.27;;;;;;;;;;4948443;28;20174;-73
2021/12/10 02:24:05;;;;;;;5.30;1.33;;;;;;;;;;4948279;28;20173;-73
2021/12/10 02:26:32;;;;;;;3.93;1.93;;;;;;;;;;4950986;28;20174;-73
2021/12/10 02:28:59;;;;;;;4.00;1.70;;;;;;;;;;4947746;28;20224;-73
2021/12/10 02:31:24;;;;;;;2.60;1.70;;;;;;;;;;4941385;28;20202;-73
2021/12/10 02:33:49;;;;;;;3.47;1.60;;;;;;;;;;4941233;28;20192;-73
2021/12/10 02:36:15;;;;;;;3.87;2.10;;;;;;;;;;4947376;28;20181;-73
2021/12/10 02:38:41;;;;;;;5.10;2.13;;;;;;;;;;4953838;28;20298;-73
2021/12/10 02:41:06;;;;;;;4.93;1.93;;;;;;;;;;4947140;28;20201;-73
2021/12/10 02:43:32;;;;;;;4.90;2.07;;;;;;;;;;4942769;28;20182;-73
2021/12/10 02:45:57;;;;;;;2.73;1.90;;;;;;;;;;4948380;28;20197;-73
2021/12/10 02:48:23;;;;;;;2.40;1.90;;;;;;;;;;4951777;28;20185;-72
2021/12/10 02:50:49;;;;;;;6.43;2.10;;;;;;;;;;4953604;28;20278;-73
2021/12/10 02:53:16;;;;;;;2.00;1.60;;;;;;;;;;4943632;28;20309;-73
2021/12/10 02:55:42;;;;;;;5.73;1.83;;;;;;;;;;4946023;28;20228;-73
2021/12/10 02:58:11;;;;;;;3.77;1.77;;;;;;;;;;4950303;28;20177;-72
2021/12/10 03:00:42;;;;;;;5.23;1.90;;;;;;;;;;4959640;28;20348;-72
2021/12/10 03:03:07;;;;;;;5.00;1.80;;;;;;;;;;4957263;28;20214;-73
2021/12/10 03:05:32;;;;;;;2.07;1.90;;;;;;;;;;4952266;28;20188;-73
2021/12/10 03:07:57;;;;;;;2.30;1.67;;;;;;;;;;4950340;28;20190;-73
2021/12/10 03:10:25;;;;;;;2.20;1.60;;;;;;;;;;4949891;28;20289;-72
2021/12/10 03:12:50;;;;;;;3.13;1.60;;;;;;;;;;4950920;28;20209;-72
2021/12/10 03:15:16;;;;;;;7.67;2.20;;;;;;;;;;4951266;28;20188;-72
2021/12/10 03:17:42;;;;;;;3.57;1.80;;;;;;;;;;4954073;28;20182;-72
2021/12/10 03:20:08;;;;;;;6.50;1.80;;;;;;;;;;4952563;28;20189;-73
2021/12/10 03:22:34;;;;;;;3.20;1.87;;;;;;;;;;4954811;28;20179;-73
2021/12/10 03:24:59;;;;;;;5.43;1.93;;;;;;;;;;4952630;28;20184;-72
2021/12/10 03:27:25;;;;;;;2.47;1.90;;;;;;;;;;4946490;28;20230;-73
2021/12/10 03:29:51;;;;;;;5.60;2.80;;;;;;;;;;4948043;28;20213;-73
2021/12/10 03:32:18;;;;;;;3.20;2.10;;;;;;;;;;4943640;28;20465;-73
2021/12/10 03:34:43;;;;;;;4.23;1.90;;;;;;;;;;4947880;28;20173;-73
2021/12/10 03:37:09;;;;;;;5.90;2.17;;;;;;;;;;4955922;28;20177;-72
2021/12/10 03:39:34;;;;;;;4.80;2.30;;;;;;;;;;4951775;28;20182;-73
2021/12/10 03:41:59;;;;;;;5.93;2.80;;;;;;;;;;4952188;28;20204;-72
2021/12/10 03:44:25;;;;;;;4.30;2.53;;;;;;;;;;4948550;28;20187;-73
2021/12/10 03:46:51;;;;;;;3.20;2.33;;;;;;;;;;4945902;28;20182;-73
2021/12/10 03:49:17;;;;;;;4.33;2.50;;;;;;;;;;4949129;28;20193;-73
2021/12/10 03:51:43;;;;;;;4.23;2.90;;;;;;;;;;4951531;28;20232;-73
2021/12/10 03:54:09;;;;;;;10.07;3.60;;;;;;;;;;4945523;28;20191;-73
2021/12/10 03:56:35;;;;;;;4.73;3.30;;;;;;;;;;4958034;28;20184;-73
2021/12/10 03:59:04;;;;;;;5.80;3.57;;;;;;;;;;4955115;28;20190;-73
2021/12/10 04:01:31;;;;;;;5.70;3.30;;;;;;;;;;4949611;28;20193;-73
2021/12/10 04:03:58;;;;;;;5.53;3.20;;;;;;;;;;4943494;28;20186;-73
2021/12/10 04:06:24;;;;;;;5.73;3.70;;;;;;;;;;4947961;28;20239;-73
2021/12/10 04:08:50;;;;;;;7.30;3.70;;;;;;;;;;4954027;28;20272;-73
2021/12/10 04:11:16;;;;;;;6.00;3.80;;;;;;;;;;4948508;28;20209;-73
2021/12/10 04:13:43;;;;;;;5.40;3.40;;;;;;;;;;4946473;28;20294;-73
2021/12/10 04:16:08;;;;;;;6.40;4.03;;;;;;;;;;4951989;28;20236;-73
2021/12/10 04:18:36;;;;;;;7.57;4.90;;;;;;;;;;4952784;28;20189;-73
2021/12/10 04:21:01;;;;;;;6.90;5.07;;;;;;;;;;4955807;28;20218;-73
2021/12/10 04:23:27;;;;;;;6.33;4.40;;;;;;;;;;4953073;28;20208;-73
2021/12/10 04:25:52;;;;;;;7.53;4.20;;;;;;;;;;4949083;28;20181;-73
2021/12/10 04:28:18;;;;;;;7.60;4.30;;;;;;;;;;4973123;28;20296;-73
2021/12/10 04:30:45;;;;;;;9.90;5.73;;;;;;;;;;4963565;28;20204;-73
2021/12/10 04:33:15;;;;;;;7.83;5.43;;;;;;;;;;4952835;28;20173;-73
2021/12/10 04:35:41;;;;;;;7.13;5.30;;;;;;;;;;4956225;28;20185;-73
2021/12/10 04:38:07;;;;;;;7.67;5.67;;;;;;;;;;4955787;28;20169;-73
2021/12/10 04:40:32;;;;;;;11.00;6.33;;;;;;;;;;4964046;28;20187;-73
2021/12/10 04:42:57;;;;;;;7.13;5.00;;;;;;;;;;4952846;28;20273;-73
2021/12/10 04:45:22;;;;;;;8.10;5.87;;;;;;;;;;4956809;28;20188;-73
2021/12/10 04:47:48;;;;;;;11.57;6.90;;;;;;;;;;4952898;28;20196;-73
2021/12/10 04:50:15;;;;;;;9.03;6.47;;;;;;;;;;4959436;28;20197;-73
2021/12/10 04:52:40;;;;;;;9.53;6.53;;;;;;;;;;4957409;28;20219;-73
2021/12/10 04:55:08;;;;;;;14.20;6.30;;;;;;;;;;4953942;28;20209;-73
2021/12/10 04:57:33;;;;;;;11.50;6.57;;;;;;;;;;4956015;28;20189;-73
2021/12/10 04:59:58;;;;;;;11.33;6.70;;;;;;;;;;4956246;28;20190;-73
2021/12/10 05:02:24;;;;;;;10.60;7.73;;;;;;;;;;4956024;28;20272;-73
2021/12/10 05:04:50;;;;;;;14.73;7.83;;;;;;;;;;4966565;28;20193;-73
2021/12/10 05:07:16;;;;;;;11.23;7.60;;;;;;;;;;4975303;28;20177;-73
2021/12/10 05:09:41;;;;;;;12.20;7.37;;;;;;;;;;4952425;28;20201;-74
2021/12/10 05:12:07;;;;;;;10.97;7.47;;;;;;;;;;4954750;28;20248;-73
2021/12/10 05:14:33;;;;;;;10.80;7.30;;;;;;;;;;4949451;28;20181;-73
2021/12/10 05:17:03;;;;;;;14.03;7.93;;;;;;;;;;4953646;28;20188;-74
2021/12/10 05:19:29;;;;;;;15.57;7.27;;;;;;;;;;4967546;28;20177;-73
2021/12/10 05:21:59;;;;;;;12.13;8.63;;;;;;;;;;4961488;28;20356;-74
2021/12/10 05:24:24;;;;;;;13.43;9.07;;;;;;;;;;4958749;28;21567;-73
2021/12/10 05:26:49;;;;;;;11.70;8.00;;;;;;;;;;4966976;28;20273;-73
2021/12/10 05:29:14;;;;;;;14.03;8.53;;;;;;;;;;4952161;29;20237;-74
2021/12/10 05:31:43;;;;;;;13.50;8.40;;;;;;;;;;4948853;28;20212;-74
2021/12/10 05:34:08;;;;;;;18.50;8.93;;;;;;;;;;4947598;28;20174;-74
2021/12/10 05:36:33;;;;;;;13.43;8.33;;;;;;;;;;4952513;28;20273;-73
2021/12/10 05:38:59;;;;;;;16.40;9.43;;;;;;;;;;4951940;28;20252;-74
2021/12/10 05:41:24;;;;;;;13.63;9.20;;;;;;;;;;4950613;28;20271;-74
2021/12/10 05:43:49;;;;;;;16.60;8.57;;;;;;;;;;4949927;28;20201;-74
2021/12/10 05:46:16;;;;;;;17.60;8.83;;;;;;;;;;4952856;28;20188;-74
2021/12/10 05:48:42;;;;;;;16.13;8.70;;;;;;;;;;4951192;28;20186;-74
2021/12/10 05:51:07;;;;;;;13.10;8.30;;;;;;;;;;4951602;28;20209;-74
2021/12/10 05:53:33;;;;;;;15.47;7.93;;;;;;;;;;4954550;28;20185;-74
2021/12/10 05:55:58;;;;;;;15.30;10.57;;;;;;;;;;4958774;28;20184;-74
2021/12/10 05:58:23;;;;;;;15.33;9.20;;;;;;;;;;4947935;28;20186;-74
2021/12/10 06:00:50;;;;;;;15.77;8.60;;;;;;;;;;4951875;28;20225;-81
2021/12/10 06:03:17;;;;;;;10.77;8.57;;;;;;;;;;4946735;29;20178;-78
2021/12/10 06:05:43;;;;;;;13.67;8.90;;;;;;;;;;4949003;28;20192;-79
2021/12/10 06:08:08;;;;;;;13.93;8.47;;;;;;;;;;4961860;28;20184;-79
2021/12/10 06:10:34;;;;;;;12.30;9.00;;;;;;;;;;4951950;28;20205;-79
2021/12/10 06:13:01;;;;;;;17.27;8.67;;;;;;;;;;4952865;29;20229;-80
2021/12/10 06:15:28;;;;;;;14.87;8.13;;;;;;;;;;4946385;28;20186;-80
2021/12/10 06:17:53;;;;;;;13.30;8.03;;;;;;;;;;4959262;28;20173;-80
2021/12/10 06:20:22;;;;;;;12.83;7.73;;;;;;;;;;4944464;29;20189;-80
2021/12/10 06:22:47;;;;;;;12.00;8.33;;;;;;;;;;4950684;29;20185;-80
2021/12/10 06:25:13;;;;;;;18.97;13.37;;;;;;;;;;4945305;29;20178;-80
2021/12/10 06:27:44;;;;;;;13.00;9.40;;;;;;;;;;4951394;28;20240;-81
2021/12/10 06:30:09;;;;;;;16.70;9.53;;;;;;;;;;4948858;28;20200;-81
2021/12/10 06:32:35;;;;;;;12.97;8.10;;;;;;;;;;4968069;28;20180;-81
2021/12/10 06:35:00;;;;;;;15.07;10.57;;;;;;;;;;4954584;28;20174;-81
2021/12/10 06:37:25;;;;;;;14.57;8.07;;;;;;;;;;4949184;29;20165;-81
2021/12/10 06:39:50;;;;;;;10.83;7.40;;;;;;;;;;4952110;28;20177;-81
2021/12/10 06:42:16;;;;;;;14.63;8.90;;;;;;;;;;4949861;28;20193;-81
2021/12/10 06:44:41;;;;;;;16.20;8.23;;;;;;;;;;4950948;28;20182;-82
2021/12/10 06:47:08;;;;;;;15.60;8.60;;;;;;;;;;4948550;28;20184;-82
2021/12/10 06:49:33;;;;;;;14.80;9.30;;;;;;;;;;4947171;29;20240;-82
2021/12/10 06:52:01;;;;;;;12.40;7.87;;;;;;;;;;4953834;28;20169;-82
2021/12/10 06:54:26;;;;;;;16.07;10.73;;;;;;;;;;4953915;28;20273;-83
2021/12/10 06:56:52;;;;;;;19.57;8.83;;;;;;;;;;4952498;28;20255;-83
2021/12/10 06:59:18;;;;;;;12.40;7.70;;;;;;;;;;4948287;29;20178;-82
2021/12/10 07:01:43;;;;;;;12.77;8.40;;;;;;;;;;4948033;28;20260;-83
2021/12/10 07:04:11;;;;;;;13.37;6.80;;;;;;;;;;4946304;28;20187;-83
2021/12/10 07:06:37;;;;;;;11.33;7.80;;;;;;;;;;4954857;28;20216;-83
2021/12/10 07:09:05;;;;;;;9.63;7.23;;;;;;;;;;4978777;28;20188;-84
2021/12/10 07:11:30;;;;;;;10.80;7.77;;;;;;;;;;4948084;28;20220;-82
2021/12/10 07:13:56;;;;;;;8.50;6.30;;;;;;;;;;4950710;28;20177;-83
2021/12/10 07:16:23;;;;;;;14.57;8.77;;;;;;;;;;4954804;28;20183;-83
2021/12/10 07:18:49;;;;;;;10.53;8.40;;;;;;;;;;4950093;28;20189;-84
2021/12/10 07:21:15;;;;;;;9.43;6.67;;;;;;;;;;4951329;28;20181;-85
2021/12/10 07:23:42;;;;;;;14.80;8.70;;;;;;;;;;4951928;28;20181;-84
2021/12/10 07:26:07;;;;;;;9.63;6.13;;;;;;;;;;4948636;28;20185;-84
2021/12/10 07:28:32;;;;;;;8.53;6.87;;;;;;;;;;4951895;28;20312;-84
2021/12/10 07:30:58;;;;;;;10.30;6.47;;;;;;;;;;4950503;28;20216;-83
2021/12/10 07:33:23;;;;;;;11.87;5.80;;;;;;;;;;4951426;28;20174;-83
2021/12/10 07:35:49;;;;;;;7.63;5.60;;;;;;;;;;4946611;28;20181;-84
2021/12/10 07:38:15;;;;;;;10.97;7.60;;;;;;;;;;4953611;28;20252;-84
2021/12/10 07:40:40;;;;;;;6.60;5.60;;;;;;;;;;4949368;28;20225;-84
2021/12/10 07:43:06;;;;;;;9.53;5.57;;;;;;;;;;4951901;28;20193;-84
2021/12/10 07:45:32;;;;;;;10.03;7.60;;;;;;;;;;4955144;28;20216;-85
2021/12/10 07:47:59;;;;;;;9.23;6.77;;;;;;;;;;4963717;28;20176;-85
2021/12/10 07:50:29;;;;;;;6.83;5.20;;;;;;;;;;4951830;28;20200;-84
2021/12/10 07:52:56;;;;;;;9.80;6.37;;;;;;;;;;4956569;28;20181;-84
2021/12/10 07:55:23;;;;;;;8.33;5.07;;;;;;;;;;4953899;28;20185;-85
2021/12/10 07:57:50;;;;;;;8.30;4.50;;;;;;;;;;4973295;28;20176;-85
2021/12/10 08:00:16;;;;;;;7.20;5.77;;;;;;;;;;4953603;28;20193;-84
2021/12/10 08:02:41;;;;;;;9.30;4.37;;;;;;;;;;4955743;28;20605;-84
2021/12/10 08:05:07;;;;;;;8.93;5.27;;;;;;;;;;4958424;28;20187;-84
2021/12/10 08:07:32;;;;;;;6.83;5.23;;;;;;;;;;4966422;28;20336;-84
2021/12/10 08:09:58;;;;;;;9.00;5.73;;;;;;;;;;4953568;28;20204;-84
2021/12/10 08:12:23;;;;;;;6.80;5.37;;;;;;;;;;4953420;28;20244;-85
2021/12/10 08:14:52;;;;;;;6.13;5.17;;;;;;;;;;4956420;28;20203;-84
2021/12/10 08:17:19;;;;;;;10.73;6.67;;;;;;;;;;4962267;28;20197;-85
2021/12/10 08:19:44;;;;;;;9.23;4.63;;;;;;;;;;4954398;28;20184;-84
2021/12/10 08:22:09;;;;;;;8.97;5.90;;;;;;;;;;4947270;28;20183;-84
2021/12/10 08:24:34;;;;;;;9.30;5.60;;;;;;;;;;4950025;28;20184;-83
2021/12/10 08:26:59;;;;;;;7.23;5.03;;;;;;;;;;4955595;28;20180;-84
2021/12/10 08:29:26;;;;;;;5.73;4.40;;;;;;;;;;4956309;28;20176;-84
2021/12/10 08:31:51;;;;;;;12.07;8.17;;;;;;;;;;4955060;28;20170;-84
2021/12/10 08:34:16;;;;;;;8.77;7.13;;;;;;;;;;4958057;28;20235;-85
2021/12/10 08:36:42;;;;;;;7.53;5.33;;;;;;;;;;4956674;28;20177;-85
2021/12/10 08:39:08;;;;;;;10.83;5.43;;;;;;;;;;4957361;28;20173;-85
2021/12/10 08:41:34;;;;;;;6.80;5.67;;;;;;;;;;4955988;28;20196;-83
2021/12/10 08:44:00;;;;;;;9.40;5.10;;;;;;;;;;4956478;28;20176;-83
2021/12/10 08:46:26;;;;;;;7.10;6.03;;;;;;;;;;4952793;28;20224;-84
2021/12/10 08:48:52;;;;;;;14.27;8.23;;;;;;;;;;4954655;28;20194;-84
2021/12/10 08:51:21;;;;;;;8.17;5.13;;;;;;;;;;4953170;28;20538;-84
2021/12/10 08:53:46;;;;;;;7.40;5.47;;;;;;;;;;4946489;28;20184;-83
2021/12/10 08:56:12;;;;;;;6.03;4.60;;;;;;;;;;4971807;28;20245;-84
2021/12/10 08:58:37;;;;;;;7.23;4.57;;;;;;;;;;4949402;28;20182;-84
2021/12/10 09:01:07;;;;;;;5.73;4.33;;;;;;;;;;4951240;28;20182;-84
2021/12/10 09:03:33;;;;;;;8.17;4.30;;;;;;;;;;4956001;28;20481;-84
2021/12/10 09:05:59;;;;;;;6.33;4.23;;;;;;;;;;4959439;28;20181;-84
2021/12/10 09:08:24;;;;;;;6.57;4.10;;;;;;;;;;4968597;28;20191;-84
2021/12/10 09:10:50;;;;;;;7.30;4.10;;;;;;;;;;4974333;28;20193;-85
2021/12/10 09:13:17;;;;;;;4.23;3.37;;;;;;;;;;4961104;28;20176;-83
2021/12/10 09:15:45;;;;;;;5.10;4.27;;;;;;;;;;4950830;28;20185;-84
2021/12/10 09:18:10;;;;;;;6.43;3.70;;;;;;;;;;4953930;28;20208;-83
2021/12/10 09:20:39;;;;;;;4.93;4.10;;;;;;;;;;4952519;28;20244;-85
2021/12/10 09:23:05;;;;;;;4.93;3.57;;;;;;;;;;4955937;28;20189;-83
2021/12/10 09:25:30;;;;;;;5.13;4.00;;;;;;;;;;4950036;28;20264;-85
2021/12/10 09:27:56;;;;;;;5.47;3.90;;;;;;;;;;4946791;29;20237;-83
2021/12/10 09:30:22;;;;;;;4.27;3.20;;;;;;;;;;4953203;29;20205;-85
2021/12/10 09:32:47;;;;;;;3.37;2.90;;;;;;;;;;4947300;29;20175;-84
2021/12/10 09:35:14;;;;;;;4.17;2.93;;;;;;;;;;4945288;29;20205;-84
2021/12/10 09:37:40;;;;;;;3.73;2.83;;;;;;;;;;4948524;29;20181;-84
2021/12/10 09:40:07;;;;;;;5.83;3.90;;;;;;;;;;4951790;29;20212;-84
2021/12/10 09:42:33;;;;;;;5.20;3.17;;;;;;;;;;4951741;29;20212;-84
2021/12/10 09:44:58;;;;;;;4.70;2.70;;;;;;;;;;4944877;29;20182;-84
2021/12/10 09:47:24;;;;;;;3.10;2.53;;;;;;;;;;4949554;29;20193;-85
2021/12/10 09:49:51;;;;;;;2.17;1.83;;;;;;;;;;4950346;29;20227;-83
2021/12/10 09:52:18;;;;;;;3.50;2.63;;;;;;;;;;4947755;29;20268;-84
2021/12/10 09:54:44;;;;;;;4.10;2.30;;;;;;;;;;4943846;29;20187;-83
2021/12/10 09:57:11;;;;;;;3.00;2.70;;;;;;;;;;4952243;28;20170;-83
2021/12/10 09:59:39;;;;;;;2.77;1.87;;;;;;;;;;4946374;29;20178;-84
2021/12/10 10:02:06;;;;;;;3.60;1.90;;;;;;;;;;4950113;29;20174;-84
2021/12/10 10:04:35;;;;;;;3.10;2.13;;;;;;;;;;4943922;29;20431;-84
2021/12/10 10:07:05;;;;;;;3.27;1.80;;;;;;;;;;4959650;28;20201;-85
2021/12/10 10:09:31;;;;;;;1.70;1.60;;;;;;;;;;4950679;28;20173;-83
2021/12/10 10:11:58;;;;;;;2.20;1.63;;;;;;;;;;4945143;29;20208;-84
2021/12/10 10:14:23;;;;;;;2.47;1.80;;;;;;;;;;4948619;28;20205;-83
2021/12/10 10:16:49;;;;;;;2.20;2.00;;;;;;;;;;4950536;28;20202;-84
2021/12/10 10:19:15;;;;;;;2.87;1.87;;;;;;;;;;4952175;29;20174;-83
2021/12/10 10:21:45;;;;;;;1.90;1.63;;;;;;;;;;4949792;28;20187;-84
2021/12/10 10:24:11;;;;;;;1.37;1.27;;;;;;;;;;4944623;29;20270;-84
2021/12/10 10:26:40;;;;;;;2.40;1.90;;;;;;;;;;4949333;29;20178;-84
2021/12/10 10:29:10;;;;;;;6.60;4.17;;;;;;;;;;4952092;28;20265;-84
2021/12/10 10:31:39;;;;;;;6.07;3.33;;;;;;;;;;4967504;28;20222;-82
2021/12/10 10:34:04;;;;;;;3.03;1.87;;;;;;;;;;4948197;29;20182;-83
2021/12/10 10:36:31;;;;;;;3.00;1.60;;;;;;;;;;4952572;29;20178;-84
2021/12/10 10:39:04;;;;;;;4.10;1.83;;;;;;;;;;4946312;29;20174;-83
2021/12/10 10:41:31;;;;;;;1.50;1.40;;;;;;;;;;4945877;29;20294;-84
2021/12/10 10:43:56;;;;;;;1.90;1.30;;;;;;;;;;4950914;29;20212;-83
2021/12/10 10:46:22;;;;;;;1.30;1.20;;;;;;;;;;4952133;29;20187;-84
2021/12/10 10:48:48;;;;;;;4.77;1.70;;;;;;;;;;4964409;28;20222;-83
2021/12/10 10:51:17;;;;;;;3.90;1.83;;;;;;;;;;4947189;29;20198;-83
2021/12/10 10:53:44;;;;;;;2.83;1.87;;;;;;;;;;4950612;29;20187;-83
2021/12/10 10:56:12;;;;;;;1.50;1.40;;;;;;;;;;4946851;29;20248;-83
2021/12/10 10:58:39;;;;;;;4.00;1.70;;;;;;;;;;4950246;28;20187;-82
2021/12/10 11:01:21;;;;;;;3.13;1.73;;;;;;;;;;4947910;29;20182;-82
2021/12/10 11:03:51;;;;;;;2.23;2.03;;;;;;;;;;4950564;28;20186;-83
2021/12/10 11:06:20;;;;;;;3.67;1.77;;;;;;;;;;4970713;28;20381;-83
2021/12/10 11:08:51;;;;;;;1.70;1.60;;;;;;;;;;4962261;28;20221;-82
2021/12/10 11:11:21;;;;;;;2.20;1.50;;;;;;;;;;4949860;29;20230;-82
2021/12/10 11:13:48;;;;;;;3.17;2.23;;;;;;;;;;4947487;28;20207;-83
2021/12/10 11:16:18;;;;;;;2.03;1.80;;;;;;;;;;4943128;28;20177;-83
2021/12/10 11:18:46;;;;;;;6.17;1.90;;;;;;;;;;4953099;28;20218;-82
2021/12/10 11:21:12;;;;;;;2.80;1.70;;;;;;;;;;4961633;28;20188;-83
2021/12/10 11:23:39;;;;;;;1.93;1.73;;;;;;;;;;4936509;29;20178;-82
2021/12/10 11:26:04;;;;;;;2.93;1.93;;;;;;;;;;4948108;28;20182;-85
2021/12/10 11:28:31;;;;;;;2.43;1.83;;;;;;;;;;4951686;29;20255;-83
2021/12/10 11:31:04;;;;;;;4.03;2.10;;;;;;;;;;4953252;29;20211;-82
2021/12/10 11:33:34;;;;;;;3.27;2.10;;;;;;;;;;4955907;29;20185;-82
2021/12/10 11:36:22;;;;;;;3.70;2.53;;;;;;;;;;4945910;29;20179;-82
2021/12/10 11:38:51;;;;;;;7.17;3.93;;;;;;;;;;4952629;29;20182;-82
2021/12/10 11:41:21;;;;;;;3.33;3.03;;;;;;;;;;4950788;29;20208;-82
2021/12/10 11:44:26;;;;;;;4.50;2.70;;;;;;;;;;4953129;28;20191;-82
2021/12/10 11:47:23;;;;;;;3.87;3.30;;;;;;;;;;4955172;28;20463;-82
2021/12/10 11:49:47;;;;;;;4.63;2.60;;;;;;;;;;4954564;29;20241;-82
2021/12/10 11:52:17;;;;;;;7.70;3.73;;;;;;;;;;4948368;29;20178;-82
2021/12/10 11:54:54;;;;;;;7.27;3.37;;;;;;;;;;4961602;28;20209;-84
2021/12/10 11:57:21;;;;;;;4.73;3.13;;;;;;;;;;4953548;29;20186;-82
2021/12/10 11:59:52;;;;;;;4.57;3.30;;;;;;;;;;4947659;29;20197;-82
2021/12/10 12:02:22;;;;;;;8.40;5.60;;;;;;;;;;4954417;29;20203;-82
2021/12/10 12:04:56;;;;;;;7.80;3.97;;;;;;;;;;4952207;29;20171;-82
2021/12/10 12:07:29;;;;;;;5.77;3.70;;;;;;;;;;4959770;28;20250;-81
2021/12/10 12:10:07;;;;;;;4.60;3.10;;;;;;;;;;4968231;28;20268;-82
2021/12/10 12:12:40;;;;;;;4.13;3.30;;;;;;;;;;4950380;29;20174;-81
2021/12/10 12:15:23;;;;;;;2.67;2.47;;;;;;;;;;4948698;28;20171;-81
2021/12/10 12:17:50;;;;;;;8.80;5.97;;;;;;;;;;4974016;28;20182;-81
2021/12/10 12:20:27;;;;;;;4.40;4.00;;;;;;;;;;4954290;28;20178;-81
2021/12/10 12:25:44;;;;;;;5.17;2.73;;;;;;;;;;4949403;29;20201;-81
2021/12/10 12:28:11;;;;;;;5.30;3.23;;;;;;;;;;4941796;29;20253;-81
2021/12/10 12:30:52;;;;;;;3.67;3.17;;;;;;;;;;4947372;29;20205;-81
2021/12/10 12:33:17;;;;;;;3.50;3.10;;;;;;;;;;4948858;29;20260;-80
2021/12/10 12:35:42;;;;;;;5.73;3.20;;;;;;;;;;4951167;28;20288;-82
2021/12/10 12:38:15;;;;;;;5.10;4.37;;;;;;;;;;4952010;28;20185;-81
2021/12/10 12:40:41;;;;;;;6.43;4.97;;;;;;;;;;4955517;28;20194;-80
2021/12/10 12:43:06;;;;;;;5.47;3.50;;;;;;;;;;4952600;29;20189;-81
2021/12/10 12:45:32;;;;;;;5.53;3.30;;;;;;;;;;4953836;29;20185;-83
2021/12/10 12:47:58;;;;;;;7.47;4.83;;;;;;;;;;4944934;28;20182;-83
2021/12/10 12:50:28;;;;;;;3.00;2.63;;;;;;;;;;4951386;28;20232;-79
2021/12/10 12:52:55;;;;;;;4.77;2.83;;;;;;;;;;4949375;28;20265;-81
2021/12/10 12:55:20;;;;;;;3.70;3.20;;;;;;;;;;4954050;28;20189;-81
2021/12/10 12:57:45;;;;;;;5.40;3.40;;;;;;;;;;4946291;28;20241;-81
2021/12/10 13:00:31;;;;;;;4.70;2.97;;;;;;;;;;4959051;28;20213;-79
2021/12/10 13:02:58;;;;;;;5.47;3.67;;;;;;;;;;4931162;28;20185;-81
2021/12/10 13:05:53;;;;;;;6.77;3.57;;;;;;;;;;4970397;28;20232;-81
2021/12/10 13:08:23;;;;;;;3.80;2.90;;;;;;;;;;4956901;28;20193;-78
2021/12/10 13:11:02;;;;;;;3.97;2.63;;;;;;;;;;4947600;28;20202;-79
2021/12/10 13:13:36;;;;;;;4.03;2.80;;;;;;;;;;4951261;28;20586;-78
2021/12/10 13:16:07;;;;;;;11.63;7.40;;;;;;;;;;4954756;28;20176;-80
2021/12/10 13:18:32;;;;;;;4.43;3.37;;;;;;;;;;4944239;28;20214;-80
2021/12/10 13:20:58;;;;;;;4.73;3.83;;;;;;;;;;4946615;28;20232;-80
2021/12/10 13:23:24;;;;;;;4.57;3.17;;;;;;;;;;4955507;28;20273;-80
2021/12/10 13:25:51;;;;;;;4.93;4.43;;;;;;;;;;4952758;29;20181;-78
2021/12/10 13:28:16;;;;;;;4.27;3.10;;;;;;;;;;4961374;28;20227;-80
2021/12/10 13:30:45;;;;;;;2.77;2.43;;;;;;;;;;4956871;28;20220;-80
2021/12/10 13:33:18;;;;;;;2.77;2.57;;;;;;;;;;4959109;28;20281;-78
2021/12/10 13:35:44;;;;;;;3.57;2.63;;;;;;;;;;4971086;28;20244;-78
2021/12/10 13:38:10;;;;;;;3.47;3.17;;;;;;;;;;4976418;28;20177;-78
2021/12/10 13:40:37;;;;;;;2.80;2.50;;;;;;;;;;4958505;28;20180;-78
2021/12/10 13:43:04;;;;;;;2.30;2.10;;;;;;;;;;4950432;28;20229;-78
2021/12/10 13:45:31;;;;;;;2.40;2.20;;;;;;;;;;4967330;28;20191;-79
2021/12/10 13:48:05;;;;;;;1.90;1.80;;;;;;;;;;4960698;28;20196;-78
2021/12/10 13:50:33;;;;;;;3.03;2.20;;;;;;;;;;4956895;28;20284;-78
2021/12/10 13:53:00;;;;;;;2.67;2.10;;;;;;;;;;4958044;28;20193;-77
2021/12/10 13:55:25;;;;;;;2.13;1.93;;;;;;;;;;4952269;28;20283;-77
2021/12/10 13:58:09;;;;;;;3.60;2.40;;;;;;;;;;4967718;28;20248;-78
2021/12/10 14:00:35;;;;;;;2.50;2.30;;;;;;;;;;4967561;28;20185;-78
2021/12/10 14:03:00;;;;;;;3.17;2.60;;;;;;;;;;4967125;28;20181;-78
2021/12/10 14:05:28;;;;;;;3.10;2.33;;;;;;;;;;4954408;28;20239;-78
2021/12/10 14:07:56;;;;;;;2.37;1.97;;;;;;;;;;4952475;28;20252;-77
2021/12/10 14:10:22;;;;;;;3.43;2.40;;;;;;;;;;4954801;28;20213;-77
2021/12/10 14:12:47;;;;;;;4.40;2.20;;;;;;;;;;4948580;28;20192;-77
2021/12/10 14:15:34;;;;;;;2.20;2.00;;;;;;;;;;4950859;28;20177;-77
2021/12/10 14:17:59;;;;;;;3.47;2.20;;;;;;;;;;4949534;28;20182;-78
2021/12/10 14:20:31;;;;;;;1.85;1.75;;;;;;;;;;4958631;28;20196;-77
2021/12/10 14:22:58;;;;;;;3.97;1.73;;;;;;;;;;4950419;28;20199;-78
2021/12/10 14:25:26;;;;;;;2.23;1.63;;;;;;;;;;4945704;28;20235;-78
2021/12/10 14:27:57;;;;;;;2.60;2.40;;;;;;;;;;4951997;28;20311;-77
2021/12/10 14:30:55;;;;;;;1.60;1.50;;;;;;;;;;4954648;28;20229;-77
2021/12/10 14:33:32;;;;;;;2.47;1.10;;;;;;;;;;4921129;29;20236;-78
2021/12/10 14:36:05;;;;;;;1.20;1.10;;;;;;;;;;4951078;28;20353;-77
2021/12/10 14:38:49;;;;;;;1.40;1.30;;;;;;;;;;4952172;28;20308;-77
2021/12/10 14:41:21;;;;;;;1.73;1.60;;;;;;;;;;4945254;28;20236;-78
2021/12/10 14:43:49;;;;;;;1.20;1.10;;;;;;;;;;4962841;28;20276;-78
2021/12/10 14:46:33;;;;;;;2.00;1.70;;;;;;;;;;4951823;28;20185;-77
2021/12/10 14:48:58;;;;;;;1.50;1.40;;;;;;;;;;4942018;29;20212;-77
2021/12/10 14:51:23;;;;;;;1.20;1.10;;;;;;;;;;4949094;28;20217;-77
2021/12/10 14:53:50;;;;;;;1.77;1.67;;;;;;;;;;4951943;28;20180;-80
2021/12/10 14:56:15;;;;;;;3.67;2.37;;;;;;;;;;4947756;28;20180;-79